sensor_id;sensor_type;location;lat;lon;timestamp;pressure;altitude;pressure_sealevel;temperature;humidity
43770;BME280;6597;52.218;9.882;2023-03-02T00:01:17;101815.22;;;-3.83;100.00
43770;BME280;6597;52.218;9.882;2023-03-02T00:03:44;101815.09;;;-3.86;100.00
43770;BME280;6597;52.218;9.882;2023-03-02T00:06:11;101816.03;;;-3.84;100.00
43770;BME280;6597;52.218;9.882;2023-03-02T00:08:39;101815.97;;;-3.86;100.00
43770;BME280;6597;52.218;9.882;2023-03-02T00:11:06;101820.38;;;-3.83;100.00
43770;BME280;6597;52.218;9.882;2023-03-02T00:13:35;101816.03;;;-3.84;100.00
43770;BME280;6597;52.218;9.882;2023-03-02T00:16:03;101825.38;;;-3.86;100.00
43770;BME280;6597;52.218;9.882;2023-03-02T00:18:30;101826.13;;;-3.89;100.00
43770;BME280;6597;52.218;9.882;2023-03-02T00:20:56;101824.22;;;-3.93;100.00
43770;BME280;6597;52.218;9.882;2023-03-02T00:23:23;101824.09;;;-3.96;100.00
43770;BME280;6597;52.218;9.882;2023-03-02T00:25:50;101824.09;;;-3.96;100.00
43770;BME280;6597;52.218;9.882;2023-03-02T00:28:16;101827.34;;;-4.00;100.00
43770;BME280;6597;52.218;9.882;2023-03-02T00:30:44;101823.09;;;-3.99;100.00
43770;BME280;6597;52.218;9.882;2023-03-02T00:33:11;101838.50;;;-3.99;100.00
43770;BME280;6597;52.218;9.882;2023-03-02T00:35:37;101827.47;;;-3.97;100.00
43770;BME280;6597;52.218;9.882;2023-03-02T00:38:04;101826.41;;;-4.02;100.00
43770;BME280;6597;52.218;9.882;2023-03-02T00:40:31;101829.63;;;-4.08;100.00
43770;BME280;6597;52.218;9.882;2023-03-02T00:42:58;101828.50;;;-4.14;100.00
43770;BME280;6597;52.218;9.882;2023-03-02T00:45:24;101828.69;;;-4.10;100.00
43770;BME280;6597;52.218;9.882;2023-03-02T00:47:52;101832.00;;;-4.12;100.00
43770;BME280;6597;52.218;9.882;2023-03-02T00:50:19;101826.06;;;-4.11;100.00
43770;BME280;6597;52.218;9.882;2023-03-02T00:52:46;101817.53;;;-4.10;100.00
43770;BME280;6597;52.218;9.882;2023-03-02T00:55:12;101822.72;;;-4.09;100.00
43770;BME280;6597;52.218;9.882;2023-03-02T00:57:39;101824.34;;;-4.11;100.00
43770;BME280;6597;52.218;9.882;2023-03-02T01:00:06;101824.22;;;-4.14;100.00
43770;BME280;6597;52.218;9.882;2023-03-02T01:02:37;101815.34;;;-4.22;100.00
43770;BME280;6597;52.218;9.882;2023-03-02T01:05:09;101821.94;;;-4.27;100.00
43770;BME280;6597;52.218;9.882;2023-03-02T01:07:36;101811.25;;;-4.38;100.00
43770;BME280;6597;52.218;9.882;2023-03-02T01:10:03;101811.94;;;-4.42;100.00
43770;BME280;6597;52.218;9.882;2023-03-02T01:12:30;101816.88;;;-4.46;100.00
43770;BME280;6597;52.218;9.882;2023-03-02T01:14:57;101816.00;;;-4.47;100.00
43770;BME280;6597;52.218;9.882;2023-03-02T01:17:24;101809.13;;;-4.48;100.00
43770;BME280;6597;52.218;9.882;2023-03-02T01:19:51;101828.06;;;-4.44;100.00
43770;BME280;6597;52.218;9.882;2023-03-02T01:22:19;101814.44;;;-4.43;100.00
43770;BME280;6597;52.218;9.882;2023-03-02T01:24:46;101815.31;;;-4.43;100.00
43770;BME280;6597;52.218;9.882;2023-03-02T01:27:13;101811.88;;;-4.43;100.00
43770;BME280;6597;52.218;9.882;2023-03-02T01:29:40;101814.44;;;-4.43;100.00
43770;BME280;6597;52.218;9.882;2023-03-02T01:32:07;101807.56;;;-4.44;100.00
43770;BME280;6597;52.218;9.882;2023-03-02T01:34:34;101805.81;;;-4.45;100.00
43770;BME280;6597;52.218;9.882;2023-03-02T01:37:04;101798.06;;;-4.47;100.00
43770;BME280;6597;52.218;9.882;2023-03-02T01:39:32;101796.25;;;-4.49;100.00
43770;BME280;6597;52.218;9.882;2023-03-02T01:41:59;101794.38;;;-4.53;100.00
43770;BME280;6597;52.218;9.882;2023-03-02T01:44:37;101790.59;;;-4.61;100.00
43770;BME280;6597;52.218;9.882;2023-03-02T01:47:10;101798.00;;;-4.67;100.00
43770;BME280;6597;52.218;9.882;2023-03-02T01:49:48;101783.53;;;-4.67;100.00
43770;BME280;6597;52.218;9.882;2023-03-02T01:52:15;101785.00;;;-4.72;100.00
43770;BME280;6597;52.218;9.882;2023-03-02T01:54:45;101784.19;;;-4.71;100.00
43770;BME280;6597;52.218;9.882;2023-03-02T01:57:19;101778.19;;;-4.72;100.00
43770;BME280;6597;52.218;9.882;2023-03-02T01:59:53;101779.28;;;-4.66;100.00
43770;BME280;6597;52.218;9.882;2023-03-02T02:02:25;101778.34;;;-4.68;100.00
43770;BME280;6597;52.218;9.882;2023-03-02T02:04:55;101770.66;;;-4.68;100.00
43770;BME280;6597;52.218;9.882;2023-03-02T02:07:23;101767.81;;;-4.75;100.00
43770;BME280;6597;52.218;9.882;2023-03-02T02:09:52;101773.75;;;-4.76;100.00
43770;BME280;6597;52.218;9.882;2023-03-02T02:12:22;101780.56;;;-4.76;100.00
43770;BME280;6597;52.218;9.882;2023-03-02T02:14:49;101778.88;;;-4.76;100.00
43770;BME280;6597;52.218;9.882;2023-03-02T02:17:17;101767.81;;;-4.75;100.00
43770;BME280;6597;52.218;9.882;2023-03-02T02:20:08;101776.56;;;-4.70;100.00
43770;BME280;6597;52.218;9.882;2023-03-02T02:22:50;101769.03;;;-4.66;100.00
43770;BME280;6597;52.218;9.882;2023-03-02T02:25:39;101777.66;;;-4.64;100.00
43770;BME280;6597;52.218;9.882;2023-03-02T02:28:13;101769.97;;;-4.64;100.00
43770;BME280;6597;52.218;9.882;2023-03-02T02:30:43;101770.66;;;-4.68;100.00
43770;BME280;6597;52.218;9.882;2023-03-02T02:33:15;101761.16;;;-4.71;100.00
43770;BME280;6597;52.218;9.882;2023-03-02T02:35:44;101768.03;;;-4.70;100.00
43770;BME280;6597;52.218;9.882;2023-03-02T02:38:13;101769.09;;;-4.65;100.00
43770;BME280;6597;52.218;9.882;2023-03-02T02:40:44;101761.34;;;-4.66;100.00
43770;BME280;6597;52.218;9.882;2023-03-02T02:43:17;101758.72;;;-4.68;100.00
43770;BME280;6597;52.218;9.882;2023-03-02T02:45:45;101761.03;;;-4.74;100.00
43770;BME280;6597;52.218;9.882;2023-03-02T02:48:15;101767.63;;;-4.79;100.00
43770;BME280;6597;52.218;9.882;2023-03-02T02:50:44;101757.38;;;-4.79;100.00
43770;BME280;6597;52.218;9.882;2023-03-02T02:53:14;101767.56;;;-4.81;100.00
43770;BME280;6597;52.218;9.882;2023-03-02T02:55:45;101764.38;;;-4.75;100.00
43770;BME280;6597;52.218;9.882;2023-03-02T02:58:24;101768.56;;;-4.77;100.00
43770;BME280;6597;52.218;9.882;2023-03-02T03:00:54;101774.56;;;-4.77;100.00
43770;BME280;6597;52.218;9.882;2023-03-02T03:03:26;101773.75;;;-4.76;100.00
43770;BME280;6597;52.218;9.882;2023-03-02T03:06:00;101775.56;;;-4.73;100.00
43770;BME280;6597;52.218;9.882;2023-03-02T03:08:48;101768.63;;;-4.76;100.00
43770;BME280;6597;52.218;9.882;2023-03-02T03:11:24;101771.94;;;-4.78;100.00
43770;BME280;6597;52.218;9.882;2023-03-02T03:13:57;101768.56;;;-4.77;100.00
43770;BME280;6597;52.218;9.882;2023-03-02T03:16:26;101758.25;;;-4.79;100.00
43770;BME280;6597;52.218;9.882;2023-03-02T03:18:54;101757.38;;;-4.79;100.00
43770;BME280;6597;52.218;9.882;2023-03-02T03:21:22;101756.66;;;-4.77;100.00
43770;BME280;6597;52.218;9.882;2023-03-02T03:23:49;101756.66;;;-4.77;100.00
43770;BME280;6597;52.218;9.882;2023-03-02T03:26:16;101743.91;;;-4.75;100.00
43770;BME280;6597;52.218;9.882;2023-03-02T03:28:43;101747.34;;;-4.75;100.00
43770;BME280;6597;52.218;9.882;2023-03-02T03:31:11;101750.50;;;-4.80;100.00
43770;BME280;6597;52.218;9.882;2023-03-02T03:33:38;101740.91;;;-4.86;100.00
43770;BME280;6597;52.218;9.882;2023-03-02T03:36:05;101744.03;;;-4.91;100.00
43770;BME280;6597;52.218;9.882;2023-03-02T03:38:32;101741.28;;;-4.96;100.00
43770;BME280;6597;52.218;9.882;2023-03-02T03:40:59;101735.22;;;-4.98;100.00
43770;BME280;6597;52.218;9.882;2023-03-02T03:43:26;101747.09;;;-5.00;100.00
43770;BME280;6597;52.218;9.882;2023-03-02T03:45:53;101747.16;;;-4.98;100.00
43770;BME280;6597;52.218;9.882;2023-03-02T03:48:21;101745.34;;;-5.01;100.00
43770;BME280;6597;52.218;9.882;2023-03-02T03:50:48;101755.56;;;-5.01;100.00
43770;BME280;6597;52.218;9.882;2023-03-02T03:53:14;101750.44;;;-5.01;100.00
43770;BME280;6597;52.218;9.882;2023-03-02T03:55:41;101757.19;;;-5.03;100.00
43770;BME280;6597;52.218;9.882;2023-03-02T03:58:08;101762.25;;;-5.05;100.00
43770;BME280;6597;52.218;9.882;2023-03-02T04:00:34;101760.44;;;-5.07;100.00
43770;BME280;6597;52.218;9.882;2023-03-02T04:03:06;101763.06;;;-5.06;100.00
43770;BME280;6597;52.218;9.882;2023-03-02T04:05:34;101763.13;;;-5.04;100.00
43770;BME280;6597;52.218;9.882;2023-03-02T04:08:02;101766.00;;;-4.96;100.00
43770;BME280;6597;52.218;9.882;2023-03-02T04:10:29;101770.69;;;-4.88;100.00
43770;BME280;6597;52.218;9.882;2023-03-02T04:12:56;101773.00;;;-4.73;100.00
43770;BME280;6597;52.218;9.882;2023-03-02T04:15:23;101765.84;;;-4.61;100.00
43770;BME280;6597;52.218;9.882;2023-03-02T04:17:50;101763.81;;;-4.49;100.00
43770;BME280;6597;52.218;9.882;2023-03-02T04:20:20;101768.31;;;-4.43;100.00
43770;BME280;6597;52.218;9.882;2023-03-02T04:22:53;101772.19;;;-4.32;100.00
43770;BME280;6597;52.218;9.882;2023-03-02T04:25:23;101762.94;;;-4.08;100.00
43770;BME280;6597;52.218;9.882;2023-03-02T04:27:53;101753.16;;;-3.95;100.00
43770;BME280;6597;52.218;9.882;2023-03-02T04:30:23;101770.63;;;-3.87;100.00
43770;BME280;6597;52.218;9.882;2023-03-02T04:32:51;101768.47;;;-3.76;100.00
43770;BME280;6597;52.218;9.882;2023-03-02T04:35:18;101768.75;;;-3.68;100.00
43770;BME280;6597;52.218;9.882;2023-03-02T04:37:46;101765.66;;;-3.60;100.00
43770;BME280;6597;52.218;9.882;2023-03-02T04:40:15;101755.78;;;-3.51;100.00
43770;BME280;6597;52.218;9.882;2023-03-02T04:42:42;101759.50;;;-3.42;100.00
43770;BME280;6597;52.218;9.882;2023-03-02T04:45:11;101749.63;;;-3.32;100.00
43770;BME280;6597;52.218;9.882;2023-03-02T04:47:37;101749.16;;;-3.22;100.00
43770;BME280;6597;52.218;9.882;2023-03-02T04:50:05;101753.69;;;-3.15;100.00
43770;BME280;6597;52.218;9.882;2023-03-02T04:52:32;101749.75;;;-3.05;100.00
43770;BME280;6597;52.218;9.882;2023-03-02T04:54:58;101749.19;;;-2.96;100.00
43770;BME280;6597;52.218;9.882;2023-03-02T04:57:26;101749.56;;;-2.87;100.00
43770;BME280;6597;52.218;9.882;2023-03-02T04:59:53;101752.28;;;-2.83;100.00
43770;BME280;6597;52.218;9.882;2023-03-02T05:02:19;101750.06;;;-2.72;100.00
43770;BME280;6597;52.218;9.882;2023-03-02T05:04:46;101747.66;;;-2.67;100.00
43770;BME280;6597;52.218;9.882;2023-03-02T05:07:12;101755.75;;;-2.57;100.00
43770;BME280;6597;52.218;9.882;2023-03-02T05:09:39;101750.88;;;-2.49;100.00
43770;BME280;6597;52.218;9.882;2023-03-02T05:12:06;101750.00;;;-2.49;100.00
43770;BME280;6597;52.218;9.882;2023-03-02T05:14:33;101752.72;;;-2.45;100.00
43770;BME280;6597;52.218;9.882;2023-03-02T05:17:00;101750.34;;;-2.39;100.00
43770;BME280;6597;52.218;9.882;2023-03-02T05:19:27;101741.91;;;-2.35;100.00
43770;BME280;6597;52.218;9.882;2023-03-02T05:21:53;101748.88;;;-2.31;100.00
43770;BME280;6597;52.218;9.882;2023-03-02T05:24:20;101734.47;;;-2.27;100.00
43770;BME280;6597;52.218;9.882;2023-03-02T05:26:47;101734.56;;;-2.24;100.00
43770;BME280;6597;52.218;9.882;2023-03-02T05:29:13;101735.44;;;-2.24;100.00
43770;BME280;6597;52.218;9.882;2023-03-02T05:31:43;101731.03;;;-2.28;100.00
43770;BME280;6597;52.218;9.882;2023-03-02T05:34:12;101732.88;;;-2.24;100.00
43770;BME280;6597;52.218;9.882;2023-03-02T05:36:40;101734.75;;;-2.18;100.00
43770;BME280;6597;52.218;9.882;2023-03-02T05:39:08;101730.53;;;-2.16;100.00
43770;BME280;6597;52.218;9.882;2023-03-02T05:41:35;101728.84;;;-2.15;100.00
43770;BME280;6597;52.218;9.882;2023-03-02T05:44:02;101725.53;;;-2.11;100.00
43770;BME280;6597;52.218;9.882;2023-03-02T05:46:29;101732.41;;;-2.10;100.00
43770;BME280;6597;52.218;9.882;2023-03-02T05:48:57;101728.84;;;-2.15;100.00
43770;BME280;6597;52.218;9.882;2023-03-02T05:51:23;101729.72;;;-2.15;100.00
43770;BME280;6597;52.218;9.882;2023-03-02T05:53:50;101742.66;;;-2.12;100.00
43770;BME280;6597;52.218;9.882;2023-03-02T05:56:16;101739.25;;;-2.11;100.00
43770;BME280;6597;52.218;9.882;2023-03-02T05:58:45;101743.53;;;-2.11;100.00
43770;BME280;6597;52.218;9.882;2023-03-02T06:01:11;101744.25;;;-2.15;100.00
43770;BME280;6597;52.218;9.882;2023-03-02T06:03:38;101754.69;;;-2.11;100.00
43770;BME280;6597;52.218;9.882;2023-03-02T06:06:06;101758.00;;;-2.15;100.00
43770;BME280;6597;52.218;9.882;2023-03-02T06:08:32;101766.50;;;-2.17;100.00
43770;BME280;6597;52.218;9.882;2023-03-02T06:10:59;101766.69;;;-2.11;100.00
43770;BME280;6597;52.218;9.882;2023-03-02T06:13:26;101768.47;;;-2.09;100.00
43770;BME280;6597;52.218;9.882;2023-03-02T06:15:52;101768.56;;;-2.06;100.00
43770;BME280;6597;52.218;9.882;2023-03-02T06:18:19;101778.13;;;-2.02;100.00
43770;BME280;6597;52.218;9.882;2023-03-02T06:20:46;101772.16;;;-2.01;100.00
43770;BME280;6597;52.218;9.882;2023-03-02T06:23:13;101771.28;;;-2.01;100.00
43770;BME280;6597;52.218;9.882;2023-03-02T06:25:41;101786.69;;;-2.03;100.00
43770;BME280;6597;52.218;9.882;2023-03-02T06:28:12;101782.50;;;-1.99;100.00
43770;BME280;6597;52.218;9.882;2023-03-02T06:30:39;101785.91;;;-2.00;100.00
43770;BME280;6597;52.218;9.882;2023-03-02T06:33:06;101783.44;;;-1.97;100.00
43770;BME280;6597;52.218;9.882;2023-03-02T06:35:32;101786.00;;;-1.97;100.00
43770;BME280;6597;52.218;9.882;2023-03-02T06:37:59;101787.75;;;-1.96;100.00
43770;BME280;6597;52.218;9.882;2023-03-02T06:40:27;101769.59;;;-2.01;100.00
43770;BME280;6597;52.218;9.882;2023-03-02T06:42:54;101767.34;;;-1.92;100.00
43770;BME280;6597;52.218;9.882;2023-03-02T06:45:21;101784.56;;;-1.89;100.00
43770;BME280;6597;52.218;9.882;2023-03-02T06:47:47;101783.47;;;-1.96;100.00
43770;BME280;6597;52.218;9.882;2023-03-02T06:50:14;101790.31;;;-1.96;100.00
43770;BME280;6597;52.218;9.882;2023-03-02T06:52:40;101801.44;;;-1.97;100.00
43770;BME280;6597;52.218;9.882;2023-03-02T06:55:07;101798.03;;;-1.96;100.00
43770;BME280;6597;52.218;9.882;2023-03-02T06:57:35;101798.28;;;-1.90;100.00
43770;BME280;6597;52.218;9.882;2023-03-02T07:00:04;101788.06;;;-1.87;100.00
43770;BME280;6597;52.218;9.882;2023-03-02T07:02:35;101787.53;;;-1.77;100.00
43770;BME280;6597;52.218;9.882;2023-03-02T07:05:02;101782.38;;;-1.77;100.00
43770;BME280;6597;52.218;9.882;2023-03-02T07:07:28;101778.25;;;-1.72;100.00
43770;BME280;6597;52.218;9.882;2023-03-02T07:09:55;101773.19;;;-1.69;100.00
43770;BME280;6597;52.218;9.882;2023-03-02T07:12:22;101776.50;;;-1.73;100.00
43770;BME280;6597;52.218;9.882;2023-03-02T07:14:49;101766.19;;;-1.73;100.00
43770;BME280;6597;52.218;9.882;2023-03-02T07:17:16;101779.16;;;-1.70;100.00
43770;BME280;6597;52.218;9.882;2023-03-02T07:19:42;101777.47;;;-1.69;100.00
43770;BME280;6597;52.218;9.882;2023-03-02T07:22:09;101772.31;;;-1.69;100.00
43770;BME280;6597;52.218;9.882;2023-03-02T07:24:36;101771.34;;;-1.73;100.00
43770;BME280;6597;52.218;9.882;2023-03-02T07:27:02;101774.88;;;-1.69;100.00
43770;BME280;6597;52.218;9.882;2023-03-02T07:29:29;101768.03;;;-1.69;100.00
43770;BME280;6597;52.218;9.882;2023-03-02T07:31:57;101763.91;;;-1.64;100.00
43770;BME280;6597;52.218;9.882;2023-03-02T07:34:25;101758.69;;;-1.65;100.00
43770;BME280;6597;52.218;9.882;2023-03-02T07:36:52;101760.72;;;-1.57;100.00
43770;BME280;6597;52.218;9.882;2023-03-02T07:39:19;101760.06;;;-1.49;100.00
43770;BME280;6597;52.218;9.882;2023-03-02T07:41:45;101757.47;;;-1.49;100.00
43770;BME280;6597;52.218;9.882;2023-03-02T07:44:12;101764.50;;;-1.44;100.00
43770;BME280;6597;52.218;9.882;2023-03-02T07:46:39;101758.63;;;-1.40;100.00
43770;BME280;6597;52.218;9.882;2023-03-02T07:49:07;101751.09;;;-1.32;100.00
43770;BME280;6597;52.218;9.882;2023-03-02T07:51:33;101753.16;;;-1.22;100.00
43770;BME280;6597;52.218;9.882;2023-03-02T07:54:00;101743.84;;;-1.17;100.00
43770;BME280;6597;52.218;9.882;2023-03-02T07:56:29;101758.72;;;-1.07;100.00
43770;BME280;6597;52.218;9.882;2023-03-02T07:58:55;101757.00;;;-1.06;100.00
43770;BME280;6597;52.218;9.882;2023-03-02T08:01:22;101755.97;;;-1.13;100.00
43770;BME280;6597;52.218;9.882;2023-03-02T08:03:48;101763.53;;;-1.19;100.00
43770;BME280;6597;52.218;9.882;2023-03-02T08:06:17;101758.34;;;-1.20;100.00
43770;BME280;6597;52.218;9.882;2023-03-02T08:08:43;101758.25;;;-1.23;100.00
43770;BME280;6597;52.218;9.882;2023-03-02T08:11:12;101757.56;;;-1.18;100.00
43770;BME280;6597;52.218;9.882;2023-03-02T08:13:39;101763.09;;;-1.04;100.00
43770;BME280;6597;52.218;9.882;2023-03-02T08:16:07;101768.28;;;-1.03;100.00
43770;BME280;6597;52.218;9.882;2023-03-02T08:18:34;101769.19;;;-1.01;100.00
43770;BME280;6597;52.218;9.882;2023-03-02T08:23:40;101772.00;;;-0.93;100.00
43770;BME280;6597;52.218;9.882;2023-03-02T08:26:07;101774.53;;;-0.95;100.00
43770;BME280;6597;52.218;9.882;2023-03-02T08:28:35;101779.66;;;-0.96;100.00
43770;BME280;6597;52.218;9.882;2023-03-02T08:31:03;101779.63;;;-0.98;100.00
43770;BME280;6597;52.218;9.882;2023-03-02T08:33:30;101779.66;;;-0.96;100.00
43770;BME280;6597;52.218;9.882;2023-03-02T08:35:58;101773.50;;;-1.00;100.00
43770;BME280;6597;52.218;9.882;2023-03-02T08:38:26;101784.03;;;-0.93;100.00
43770;BME280;6597;52.218;9.882;2023-03-02T08:40:55;101777.91;;;-0.97;100.00
43770;BME280;6597;52.218;9.882;2023-03-02T08:43:23;101774.72;;;-0.88;100.00
43770;BME280;6597;52.218;9.882;2023-03-02T08:45:51;101777.53;;;-0.79;100.00
43770;BME280;6597;52.218;9.882;2023-03-02T08:48:18;101782.59;;;-0.82;100.00
43770;BME280;6597;52.218;9.882;2023-03-02T08:50:53;101779.16;;;-0.83;100.00
43770;BME280;6597;52.218;9.882;2023-03-02T08:53:20;101782.91;;;-0.72;100.00
43770;BME280;6597;52.218;9.882;2023-03-02T08:55:47;101781.41;;;-0.64;100.00
43770;BME280;6597;52.218;9.882;2023-03-02T08:58:15;101771.47;;;-0.50;100.00
43770;BME280;6597;52.218;9.882;2023-03-02T09:00:41;101766.41;;;-0.45;100.00
43770;BME280;6597;52.218;9.882;2023-03-02T09:03:08;101766.50;;;-0.42;100.00
43770;BME280;6597;52.218;9.882;2023-03-02T09:05:34;101766.59;;;-0.38;100.00
43770;BME280;6597;52.218;9.882;2023-03-02T09:08:01;101766.81;;;-0.30;100.00
43770;BME280;6597;52.218;9.882;2023-03-02T09:10:27;101773.81;;;-0.26;100.00
43770;BME280;6597;52.218;9.882;2023-03-02T09:12:54;101777.41;;;-0.19;100.00
43770;BME280;6597;52.218;9.882;2023-03-02T09:15:22;101773.03;;;-0.22;100.00
43770;BME280;6597;52.218;9.882;2023-03-02T09:17:48;101777.19;;;-0.28;100.00
43770;BME280;6597;52.218;9.882;2023-03-02T09:20:15;101768.19;;;-0.43;100.00
43770;BME280;6597;52.218;9.882;2023-03-02T09:22:42;101771.72;;;-0.39;100.00
43770;BME280;6597;52.218;9.882;2023-03-02T09:25:13;101775.34;;;-0.33;100.00
43770;BME280;6597;52.218;9.882;2023-03-02T09:27:40;101770.13;;;-0.34;100.00
43770;BME280;6597;52.218;9.882;2023-03-02T09:30:08;101773.53;;;-0.35;100.00
43770;BME280;6597;52.218;9.882;2023-03-02T09:32:36;101776.34;;;-0.27;100.00
43770;BME280;6597;52.218;9.882;2023-03-02T09:35:03;101780.78;;;-0.22;100.00
43770;BME280;6597;52.218;9.882;2023-03-02T09:37:29;101779.88;;;-0.24;100.00
43770;BME280;6597;52.218;9.882;2023-03-02T09:39:56;101780.66;;;-0.26;100.00
43770;BME280;6597;52.218;9.882;2023-03-02T09:42:37;101776.41;;;-0.24;100.00
43770;BME280;6597;52.218;9.882;2023-03-02T09:45:20;101776.41;;;-0.24;100.00
43770;BME280;6597;52.218;9.882;2023-03-02T09:47:59;101774.63;;;-0.27;100.00
43770;BME280;6597;52.218;9.882;2023-03-02T09:50:31;101778.38;;;-0.14;100.00
43770;BME280;6597;52.218;9.882;2023-03-02T09:55:55;101776.03;;;-0.05;100.00
43770;BME280;6597;52.218;9.882;2023-03-02T09:58:28;101781.25;;;-0.02;100.00
43770;BME280;6597;52.218;9.882;2023-03-02T10:00:57;101787.44;;;0.03;100.00
43770;BME280;6597;52.218;9.882;2023-03-02T10:03:34;101787.47;;;0.05;100.00
43770;BME280;6597;52.218;9.882;2023-03-02T10:06:03;101780.66;;;0.08;100.00
43770;BME280;6597;52.218;9.882;2023-03-02T10:08:33;101782.47;;;0.12;100.00
43770;BME280;6597;52.218;9.882;2023-03-02T10:11:06;101779.28;;;0.22;100.00
43770;BME280;6597;52.218;9.882;2023-03-02T10:13:40;101768.81;;;0.16;100.00
43770;BME280;6597;52.218;9.882;2023-03-02T10:16:18;101773.13;;;0.17;100.00
43770;BME280;6597;52.218;9.882;2023-03-02T10:19:00;101761.22;;;0.24;100.00
43770;BME280;6597;52.218;9.882;2023-03-02T10:21:33;101762.94;;;0.23;100.00
43770;BME280;6597;52.218;9.882;2023-03-02T10:24:07;101758.78;;;0.30;100.00
43770;BME280;6597;52.218;9.882;2023-03-02T10:26:39;101756.47;;;0.41;100.00
43770;BME280;6597;52.218;9.882;2023-03-02T10:29:25;101764.22;;;0.41;100.00
43770;BME280;6597;52.218;9.882;2023-03-02T10:31:58;101753.09;;;0.45;100.00
43770;BME280;6597;52.218;9.882;2023-03-02T10:34:30;101756.00;;;0.60;100.00
43770;BME280;6597;52.218;9.882;2023-03-02T10:36:57;101757.25;;;0.77;100.00
43770;BME280;6597;52.218;9.882;2023-03-02T10:39:23;101751.41;;;0.87;100.00
43770;BME280;6597;52.218;9.882;2023-03-02T10:41:52;101751.97;;;0.71;100.00
43770;BME280;6597;52.218;9.882;2023-03-02T10:44:24;101763.81;;;0.63;100.00
43770;BME280;6597;52.218;9.882;2023-03-02T10:46:53;101757.16;;;0.73;100.00
43770;BME280;6597;52.218;9.882;2023-03-02T10:49:27;101755.88;;;0.94;100.00
43770;BME280;6597;52.218;9.882;2023-03-02T10:51:59;101757.84;;;1.06;100.00
43770;BME280;6597;52.218;9.882;2023-03-02T10:54:27;101757.97;;;1.14;100.00
43770;BME280;6597;52.218;9.882;2023-03-02T10:56:56;101750.22;;;1.14;100.00
43770;BME280;6597;52.218;9.882;2023-03-02T10:59:43;101748.78;;;1.30;100.00
43770;BME280;6597;52.218;9.882;2023-03-02T11:02:17;101736.78;;;1.32;100.00
43770;BME280;6597;52.218;9.882;2023-03-02T11:04:51;101731.41;;;1.22;100.00
43770;BME280;6597;52.218;9.882;2023-03-02T11:07:21;101742.06;;;1.38;100.00
43770;BME280;6597;52.218;9.882;2023-03-02T11:09:58;101734.44;;;1.45;100.00
43770;BME280;6597;52.218;9.882;2023-03-02T11:12:26;101738.03;;;1.55;100.00
43770;BME280;6597;52.218;9.882;2023-03-02T11:17:49;101735.13;;;1.35;100.00
43770;BME280;6597;52.218;9.882;2023-03-02T11:20:23;101736.84;;;1.35;100.00
43770;BME280;6597;52.218;9.882;2023-03-02T11:23:01;101730.66;;;1.28;100.00
43770;BME280;6597;52.218;9.882;2023-03-02T11:25:34;101728.03;;;1.27;100.00
43770;BME280;6597;52.218;9.882;2023-03-02T11:28:11;101729.69;;;1.23;100.00
43770;BME280;6597;52.218;9.882;2023-03-02T11:30:46;101727.97;;;1.22;100.00
43770;BME280;6597;52.218;9.882;2023-03-02T11:33:17;101723.09;;;1.39;100.00
43770;BME280;6597;52.218;9.882;2023-03-02T11:35:50;101719.00;;;1.51;100.00
43770;BME280;6597;52.218;9.882;2023-03-02T11:38:22;101719.19;;;1.62;100.00
43770;BME280;6597;52.218;9.882;2023-03-02T11:40:52;101716.53;;;1.59;100.00
43770;BME280;6597;52.218;9.882;2023-03-02T11:43:20;101710.44;;;1.55;100.00
43770;BME280;6597;52.218;9.882;2023-03-02T11:45:50;101711.50;;;1.65;100.00
43770;BME280;6597;52.218;9.882;2023-03-02T11:48:21;101708.97;;;1.70;100.00
43770;BME280;6597;52.218;9.882;2023-03-02T11:50:56;101716.88;;;1.77;100.00
43770;BME280;6597;52.218;9.882;2023-03-02T11:53:26;101713.34;;;1.72;99.94
43770;BME280;6597;52.218;9.882;2023-03-02T11:55:55;101711.38;;;1.59;99.84
43770;BME280;6597;52.218;9.882;2023-03-02T11:58:24;101715.47;;;1.46;100.00
43770;BME280;6597;52.218;9.882;2023-03-02T12:00:53;101715.53;;;1.49;100.00
43770;BME280;6597;52.218;9.882;2023-03-02T12:03:34;101718.13;;;1.51;100.00
43770;BME280;6597;52.218;9.882;2023-03-02T12:06:05;101716.56;;;1.61;100.00
43770;BME280;6597;52.218;9.882;2023-03-02T12:08:36;101716.59;;;1.62;100.00
43770;BME280;6597;52.218;9.882;2023-03-02T12:11:05;101707.16;;;1.63;100.00
43770;BME280;6597;52.218;9.882;2023-03-02T12:13:34;101707.97;;;1.62;100.00
43770;BME280;6597;52.218;9.882;2023-03-02T12:16:02;101695.84;;;1.59;100.00
43770;BME280;6597;52.218;9.882;2023-03-02T12:18:40;101693.44;;;1.70;100.00
43770;BME280;6597;52.218;9.882;2023-03-02T12:21:10;101681.31;;;1.66;100.00
43770;BME280;6597;52.218;9.882;2023-03-02T12:23:51;101665.09;;;1.77;100.00
43770;BME280;6597;52.218;9.882;2023-03-02T12:26:29;101663.44;;;1.82;100.00
43770;BME280;6597;52.218;9.882;2023-03-02T12:29:00;101665.53;;;2.06;100.00
43770;BME280;6597;52.218;9.882;2023-03-02T12:31:41;101666.66;;;2.27;100.00
43770;BME280;6597;52.218;9.882;2023-03-02T12:34:31;101670.41;;;2.50;99.31
43770;BME280;6597;52.218;9.882;2023-03-02T12:37:04;101673.25;;;2.68;97.93
43770;BME280;6597;52.218;9.882;2023-03-02T12:39:46;101661.19;;;2.70;96.94
43770;BME280;6597;52.218;9.882;2023-03-02T12:42:33;101661.97;;;2.65;95.65
43770;BME280;6597;52.218;9.882;2023-03-02T12:45:16;101665.16;;;2.42;96.85
43770;BME280;6597;52.218;9.882;2023-03-02T12:47:48;101663.44;;;2.43;97.89
43770;BME280;6597;52.218;9.882;2023-03-02T12:50:19;101647.00;;;2.42;98.04
43770;BME280;6597;52.218;9.882;2023-03-02T12:52:57;101657.34;;;2.39;97.73
43770;BME280;6597;52.218;9.882;2023-03-02T12:55:24;101649.44;;;2.29;98.71
43770;BME280;6597;52.218;9.882;2023-03-02T12:57:52;101649.44;;;2.29;99.85
43770;BME280;6597;52.218;9.882;2023-03-02T13:00:21;101646.06;;;2.36;99.57
43770;BME280;6597;52.218;9.882;2023-03-02T13:02:50;101655.38;;;2.23;99.95
43770;BME280;6597;52.218;9.882;2023-03-02T13:05:19;101646.78;;;2.26;100.00
43770;BME280;6597;52.218;9.882;2023-03-02T13:07:55;101644.31;;;2.33;100.00
43770;BME280;6597;52.218;9.882;2023-03-02T13:10:28;101642.59;;;2.35;100.00
43770;BME280;6597;52.218;9.882;2023-03-02T13:12:56;101640.91;;;2.37;100.00